ウラジオストク の空港の天気 - METARとTAF

ウラジオストク空港 ( UHWW / VVO ) - ロシア ウラジオストク
飛行場実況気象(Metar)
観測時間10/26 08:00 VLAT (10/25 22:00 UTC)
風向・風速静穏 0m/s
視程10km以上
天気現象
なし
気温-2℃
湿度86%
気圧1019hPa
METARUHWW 252200Z 00000MPS 9999 NSC M02/M04 Q1019 R25L/0///70 NOSIG RMK QFE763
過去の天気等 Google飛行場航空写真 Wunderground天気予報

過去48時間のMETAR

飛行場予報(TAF)
発表時間: 10/26 05:53 VLAT (10/25 19:53 UTC)
予報対象時間: 26日7時 VLAT ~ 27日7時 VLAT
風向・風速北北西 3m/s
視程10km以上
全天の4割程度の雲 雲底高度 910m
26日7時 VLAT ~ 26日9時 VLAT に一時的に
視程500m
天気現象氷霧
全天を覆う雲 鉛直視程 60m
26日18時 VLAT ~ 26日19時 VLAT に徐々に
風向・風速西南西 3m/s
全天の8割程度の雲 雲底高度 910m
TAF UHWW 251953Z 2521/2621 34003MPS 9999 SCT030
TEMPO 2521/2523 0500 FZFG VV002
BECMG 2608/2609 24003MPS BKN030